Allen Jay, North Carolina
Current Conditions -  °F | °C
As of 6:54 PM on Saturday 22 Nov 2014 (Local Time) from KGSO Reporting Station
Few Clouds Few Clouds  
Wind Chill:   Ceiling: Unl
Heat Index:   Visibility: 10mi
Dew Point: -8°   Wind: 5mph
Humidity: 34%   Direction: 190°S
Pressure: 30.32"   Gusts: NA
Location:  35.9136°N, 79.9465°W
Report Text: KGSO 222354Z 19004KT 10SM FEW250 07/M08 A3032 RMK AO2 SLP274 T00671083 10117 20061 56014
Loading
Personal Weather Stations






























Interactive Weather Map New forecast layout! Learn more

10-Day Weather Forecast

Advertisements
Track Severe Weather on mobile